sensor_id;sensor_type;location;lat;lon;timestamp;P1;durP1;ratioP1;P2;durP2;ratioP2
29200;SDS011;16244;51.956;12.980;2022-09-30T00:01:39;4.67;;;3.00;;
29200;SDS011;16244;51.956;12.980;2022-09-30T00:04:06;5.47;;;2.40;;
29200;SDS011;16244;51.956;12.980;2022-09-30T00:06:38;2.67;;;2.13;;
29200;SDS011;16244;51.956;12.980;2022-09-30T00:09:05;2.70;;;2.20;;
29200;SDS011;16244;51.956;12.980;2022-09-30T00:11:34;3.67;;;2.10;;
29200;SDS011;16244;51.956;12.980;2022-09-30T00:14:03;2.30;;;2.10;;
29200;SDS011;16244;51.956;12.980;2022-09-30T00:16:32;2.80;;;2.40;;
29200;SDS011;16244;51.956;12.980;2022-09-30T00:19:01;5.00;;;2.63;;
29200;SDS011;16244;51.956;12.980;2022-09-30T00:21:30;3.27;;;2.67;;
29200;SDS011;16244;51.956;12.980;2022-09-30T00:23:58;4.63;;;3.00;;
29200;SDS011;16244;51.956;12.980;2022-09-30T00:26:25;4.40;;;3.17;;
29200;SDS011;16244;51.956;12.980;2022-09-30T00:28:53;4.07;;;3.33;;
29200;SDS011;16244;51.956;12.980;2022-09-30T00:31:22;3.20;;;2.30;;
29200;SDS011;16244;51.956;12.980;2022-09-30T00:33:51;3.20;;;2.67;;
29200;SDS011;16244;51.956;12.980;2022-09-30T00:36:32;4.03;;;2.67;;
29200;SDS011;16244;51.956;12.980;2022-09-30T00:39:00;7.80;;;2.63;;
29200;SDS011;16244;51.956;12.980;2022-09-30T00:41:27;3.70;;;2.60;;
29200;SDS011;16244;51.956;12.980;2022-09-30T00:43:54;2.30;;;2.00;;
29200;SDS011;16244;51.956;12.980;2022-09-30T00:46:28;3.20;;;2.70;;
29200;SDS011;16244;51.956;12.980;2022-09-30T00:49:02;2.13;;;1.93;;
29200;SDS011;16244;51.956;12.980;2022-09-30T00:51:34;5.47;;;2.73;;
29200;SDS011;16244;51.956;12.980;2022-09-30T00:54:05;2.37;;;2.10;;
29200;SDS011;16244;51.956;12.980;2022-09-30T00:56:38;4.03;;;2.40;;
29200;SDS011;16244;51.956;12.980;2022-09-30T00:59:09;4.50;;;2.20;;
29200;SDS011;16244;51.956;12.980;2022-09-30T01:01:40;2.40;;;2.20;;
29200;SDS011;16244;51.956;12.980;2022-09-30T01:04:10;4.50;;;2.13;;
29200;SDS011;16244;51.956;12.980;2022-09-30T01:06:39;2.90;;;2.17;;
29200;SDS011;16244;51.956;12.980;2022-09-30T01:09:07;3.00;;;2.20;;
29200;SDS011;16244;51.956;12.980;2022-09-30T01:11:35;3.10;;;1.90;;
29200;SDS011;16244;51.956;12.980;2022-09-30T01:14:03;2.20;;;1.90;;
29200;SDS011;16244;51.956;12.980;2022-09-30T01:16:42;2.90;;;2.43;;
29200;SDS011;16244;51.956;12.980;2022-09-30T01:22:39;2.23;;;1.87;;
29200;SDS011;16244;51.956;12.980;2022-09-30T01:25:16;3.00;;;2.33;;
29200;SDS011;16244;51.956;12.980;2022-09-30T01:28:06;2.93;;;2.63;;
29200;SDS011;16244;51.956;12.980;2022-09-30T01:30:55;3.10;;;2.47;;
29200;SDS011;16244;51.956;12.980;2022-09-30T01:33:33;5.90;;;3.10;;
29200;SDS011;16244;51.956;12.980;2022-09-30T01:36:12;3.03;;;2.37;;
29200;SDS011;16244;51.956;12.980;2022-09-30T01:38:51;6.60;;;3.43;;
29200;SDS011;16244;51.956;12.980;2022-09-30T01:41:25;5.53;;;3.90;;
29200;SDS011;16244;51.956;12.980;2022-09-30T01:44:00;5.77;;;3.93;;
29200;SDS011;16244;51.956;12.980;2022-09-30T01:46:35;4.00;;;2.90;;
29200;SDS011;16244;51.956;12.980;2022-09-30T01:49:10;7.80;;;3.20;;
29200;SDS011;16244;51.956;12.980;2022-09-30T01:51:44;4.10;;;2.97;;
29200;SDS011;16244;51.956;12.980;2022-09-30T01:54:22;8.03;;;2.40;;
29200;SDS011;16244;51.956;12.980;2022-09-30T01:56:54;4.07;;;2.10;;
29200;SDS011;16244;51.956;12.980;2022-09-30T01:59:29;1.73;;;1.53;;
29200;SDS011;16244;51.956;12.980;2022-09-30T02:02:03;2.57;;;2.03;;
29200;SDS011;16244;51.956;12.980;2022-09-30T02:04:35;2.97;;;1.90;;
29200;SDS011;16244;51.956;12.980;2022-09-30T02:07:06;10.90;;;1.83;;
29200;SDS011;16244;51.956;12.980;2022-09-30T02:09:39;2.67;;;1.87;;
29200;SDS011;16244;51.956;12.980;2022-09-30T02:12:12;2.03;;;1.83;;
29200;SDS011;16244;51.956;12.980;2022-09-30T02:14:42;3.00;;;2.00;;
29200;SDS011;16244;51.956;12.980;2022-09-30T02:17:15;2.73;;;2.17;;
29200;SDS011;16244;51.956;12.980;2022-09-30T02:19:46;6.63;;;2.50;;
29200;SDS011;16244;51.956;12.980;2022-09-30T02:22:17;2.80;;;2.30;;
29200;SDS011;16244;51.956;12.980;2022-09-30T02:24:49;3.20;;;2.83;;
29200;SDS011;16244;51.956;12.980;2022-09-30T02:27:22;4.07;;;2.80;;
29200;SDS011;16244;51.956;12.980;2022-09-30T02:29:54;2.57;;;1.80;;
29200;SDS011;16244;51.956;12.980;2022-09-30T02:32:26;5.17;;;3.50;;
29200;SDS011;16244;51.956;12.980;2022-09-30T02:34:58;3.17;;;2.80;;
29200;SDS011;16244;51.956;12.980;2022-09-30T02:37:30;7.80;;;2.17;;
29200;SDS011;16244;51.956;12.980;2022-09-30T02:40:02;3.20;;;2.67;;
29200;SDS011;16244;51.956;12.980;2022-09-30T02:42:33;3.57;;;2.00;;
29200;SDS011;16244;51.956;12.980;2022-09-30T02:45:01;3.63;;;1.70;;
29200;SDS011;16244;51.956;12.980;2022-09-30T02:47:36;3.00;;;2.00;;
29200;SDS011;16244;51.956;12.980;2022-09-30T02:50:14;2.20;;;1.63;;
29200;SDS011;16244;51.956;12.980;2022-09-30T02:52:48;2.60;;;2.23;;
29200;SDS011;16244;51.956;12.980;2022-09-30T02:55:24;3.00;;;2.50;;
29200;SDS011;16244;51.956;12.980;2022-09-30T02:57:57;3.77;;;2.30;;
29200;SDS011;16244;51.956;12.980;2022-09-30T03:00:32;3.00;;;2.20;;
29200;SDS011;16244;51.956;12.980;2022-09-30T03:03:02;2.40;;;2.20;;
29200;SDS011;16244;51.956;12.980;2022-09-30T03:05:32;2.83;;;2.50;;
29200;SDS011;16244;51.956;12.980;2022-09-30T03:08:00;4.33;;;3.00;;
29200;SDS011;16244;51.956;12.980;2022-09-30T03:10:28;5.37;;;3.20;;
29200;SDS011;16244;51.956;12.980;2022-09-30T03:13:03;3.17;;;2.77;;
29200;SDS011;16244;51.956;12.980;2022-09-30T03:15:40;3.20;;;2.67;;
29200;SDS011;16244;51.956;12.980;2022-09-30T03:18:20;3.10;;;2.30;;
29200;SDS011;16244;51.956;12.980;2022-09-30T03:21:02;4.60;;;2.23;;
29200;SDS011;16244;51.956;12.980;2022-09-30T03:26:36;4.03;;;3.00;;
29200;SDS011;16244;51.956;12.980;2022-09-30T03:29:14;2.83;;;2.53;;
29200;SDS011;16244;51.956;12.980;2022-09-30T03:31:52;3.10;;;2.70;;
29200;SDS011;16244;51.956;12.980;2022-09-30T03:34:36;4.93;;;2.90;;
29200;SDS011;16244;51.956;12.980;2022-09-30T03:37:15;15.27;;;3.07;;
29200;SDS011;16244;51.956;12.980;2022-09-30T03:39:53;6.10;;;2.70;;
29200;SDS011;16244;51.956;12.980;2022-09-30T03:42:23;3.90;;;2.90;;
29200;SDS011;16244;51.956;12.980;2022-09-30T03:44:56;3.10;;;2.80;;
29200;SDS011;16244;51.956;12.980;2022-09-30T03:47:30;3.87;;;3.20;;
29200;SDS011;16244;51.956;12.980;2022-09-30T03:50:02;3.60;;;3.07;;
29200;SDS011;16244;51.956;12.980;2022-09-30T03:52:33;5.10;;;3.47;;
29200;SDS011;16244;51.956;12.980;2022-09-30T03:55:02;3.67;;;2.70;;
29200;SDS011;16244;51.956;12.980;2022-09-30T03:57:32;2.70;;;2.47;;
29200;SDS011;16244;51.956;12.980;2022-09-30T04:00:00;3.37;;;2.50;;
29200;SDS011;16244;51.956;12.980;2022-09-30T04:02:27;4.40;;;3.40;;
29200;SDS011;16244;51.956;12.980;2022-09-30T04:04:55;3.70;;;3.33;;
29200;SDS011;16244;51.956;12.980;2022-09-30T04:07:26;3.67;;;3.37;;
29200;SDS011;16244;51.956;12.980;2022-09-30T04:09:54;8.47;;;3.27;;
29200;SDS011;16244;51.956;12.980;2022-09-30T04:12:22;6.07;;;3.80;;
29200;SDS011;16244;51.956;12.980;2022-09-30T04:14:50;4.30;;;3.60;;
29200;SDS011;16244;51.956;12.980;2022-09-30T04:17:18;3.13;;;2.83;;
29200;SDS011;16244;51.956;12.980;2022-09-30T04:19:46;3.20;;;2.90;;
29200;SDS011;16244;51.956;12.980;2022-09-30T04:22:15;3.70;;;2.73;;
29200;SDS011;16244;51.956;12.980;2022-09-30T04:24:45;3.33;;;2.80;;
29200;SDS011;16244;51.956;12.980;2022-09-30T04:27:12;3.57;;;2.93;;
29200;SDS011;16244;51.956;12.980;2022-09-30T04:29:40;3.03;;;2.80;;
29200;SDS011;16244;51.956;12.980;2022-09-30T04:32:08;4.40;;;3.63;;
29200;SDS011;16244;51.956;12.980;2022-09-30T04:34:36;5.37;;;3.80;;
29200;SDS011;16244;51.956;12.980;2022-09-30T04:37:04;6.73;;;3.30;;
29200;SDS011;16244;51.956;12.980;2022-09-30T04:39:34;3.20;;;2.67;;
29200;SDS011;16244;51.956;12.980;2022-09-30T04:42:03;2.43;;;2.20;;
29200;SDS011;16244;51.956;12.980;2022-09-30T04:44:32;2.60;;;2.13;;
29200;SDS011;16244;51.956;12.980;2022-09-30T04:47:15;3.20;;;2.67;;
29200;SDS011;16244;51.956;12.980;2022-09-30T04:50:21;2.70;;;1.83;;
29200;SDS011;16244;51.956;12.980;2022-09-30T04:53:17;2.93;;;2.67;;
29200;SDS011;16244;51.956;12.980;2022-09-30T04:56:14;3.40;;;2.70;;
29200;SDS011;16244;51.956;12.980;2022-09-30T05:02:15;2.87;;;2.57;;
29200;SDS011;16244;51.956;12.980;2022-09-30T05:05:17;5.97;;;4.53;;
29200;SDS011;16244;51.956;12.980;2022-09-30T05:08:00;4.50;;;3.50;;
29200;SDS011;16244;51.956;12.980;2022-09-30T05:11:17;2.80;;;2.50;;
29200;SDS011;16244;51.956;12.980;2022-09-30T05:14:18;2.07;;;1.70;;
29200;SDS011;16244;51.956;12.980;2022-09-30T05:17:14;4.23;;;2.80;;
29200;SDS011;16244;51.956;12.980;2022-09-30T05:19:57;3.30;;;2.33;;
29200;SDS011;16244;51.956;12.980;2022-09-30T05:23:02;2.70;;;2.37;;
29200;SDS011;16244;51.956;12.980;2022-09-30T05:26:16;3.47;;;2.63;;
29200;SDS011;16244;51.956;12.980;2022-09-30T05:57:58;25.43;;;13.50;;
29200;SDS011;16244;51.956;12.980;2022-09-30T06:01:38;24.90;;;13.50;;
29200;SDS011;16244;51.956;12.980;2022-09-30T06:25:29;17.40;;;11.53;;
29200;SDS011;16244;51.956;12.980;2022-09-30T06:28:20;11.63;;;6.60;;
29200;SDS011;16244;51.956;12.980;2022-09-30T06:31:18;9.07;;;7.00;;
29200;SDS011;16244;51.956;12.980;2022-09-30T06:34:05;12.97;;;7.90;;
29200;SDS011;16244;51.956;12.980;2022-09-30T06:37:11;15.97;;;10.17;;
29200;SDS011;16244;51.956;12.980;2022-09-30T06:47:26;18.43;;;12.00;;
29200;SDS011;16244;51.956;12.980;2022-09-30T06:50:30;35.43;;;17.50;;
29200;SDS011;16244;51.956;12.980;2022-09-30T06:53:26;18.80;;;10.67;;
29200;SDS011;16244;51.956;12.980;2022-09-30T06:56:25;19.43;;;9.03;;
29200;SDS011;16244;51.956;12.980;2022-09-30T06:59:35;15.07;;;9.97;;
29200;SDS011;16244;51.956;12.980;2022-09-30T07:02:32;11.87;;;8.30;;
29200;SDS011;16244;51.956;12.980;2022-09-30T07:05:28;15.40;;;8.30;;
29200;SDS011;16244;51.956;12.980;2022-09-30T07:08:28;10.77;;;7.60;;
29200;SDS011;16244;51.956;12.980;2022-09-30T07:11:44;9.43;;;6.80;;
29200;SDS011;16244;51.956;12.980;2022-09-30T07:21:28;10.73;;;7.07;;
29200;SDS011;16244;51.956;12.980;2022-09-30T07:24:12;11.97;;;6.27;;
29200;SDS011;16244;51.956;12.980;2022-09-30T07:26:39;10.13;;;6.33;;
29200;SDS011;16244;51.956;12.980;2022-09-30T07:29:06;10.50;;;6.90;;
29200;SDS011;16244;51.956;12.980;2022-09-30T07:31:33;10.20;;;7.63;;
29200;SDS011;16244;51.956;12.980;2022-09-30T07:34:02;39.13;;;22.00;;
29200;SDS011;16244;51.956;12.980;2022-09-30T07:36:32;13.90;;;7.00;;
29200;SDS011;16244;51.956;12.980;2022-09-30T07:39:02;10.83;;;7.00;;
29200;SDS011;16244;51.956;12.980;2022-09-30T07:41:30;10.20;;;7.30;;
29200;SDS011;16244;51.956;12.980;2022-09-30T07:44:00;13.97;;;7.30;;
29200;SDS011;16244;51.956;12.980;2022-09-30T07:46:29;10.33;;;6.50;;
29200;SDS011;16244;51.956;12.980;2022-09-30T07:48:58;10.50;;;6.90;;
29200;SDS011;16244;51.956;12.980;2022-09-30T07:51:28;11.17;;;6.90;;
29200;SDS011;16244;51.956;12.980;2022-09-30T07:53:57;9.97;;;6.23;;
29200;SDS011;16244;51.956;12.980;2022-09-30T07:56:26;18.80;;;7.40;;
29200;SDS011;16244;51.956;12.980;2022-09-30T07:58:54;16.17;;;6.90;;
29200;SDS011;16244;51.956;12.980;2022-09-30T08:01:24;11.20;;;7.03;;
29200;SDS011;16244;51.956;12.980;2022-09-30T08:03:52;11.93;;;7.17;;
29200;SDS011;16244;51.956;12.980;2022-09-30T08:06:21;15.97;;;6.90;;
29200;SDS011;16244;51.956;12.980;2022-09-30T08:08:51;13.40;;;6.20;;
29200;SDS011;16244;51.956;12.980;2022-09-30T08:11:20;14.87;;;7.37;;
29200;SDS011;16244;51.956;12.980;2022-09-30T08:13:49;12.73;;;6.77;;
29200;SDS011;16244;51.956;12.980;2022-09-30T08:16:17;10.83;;;6.47;;
29200;SDS011;16244;51.956;12.980;2022-09-30T08:18:44;14.60;;;7.40;;
29200;SDS011;16244;51.956;12.980;2022-09-30T08:21:11;13.03;;;7.33;;
29200;SDS011;16244;51.956;12.980;2022-09-30T08:23:39;11.50;;;6.70;;
29200;SDS011;16244;51.956;12.980;2022-09-30T08:26:08;13.80;;;8.23;;
29200;SDS011;16244;51.956;12.980;2022-09-30T08:28:38;15.73;;;7.60;;
29200;SDS011;16244;51.956;12.980;2022-09-30T08:31:05;15.70;;;7.33;;
29200;SDS011;16244;51.956;12.980;2022-09-30T08:33:34;13.00;;;6.20;;
29200;SDS011;16244;51.956;12.980;2022-09-30T08:36:02;13.80;;;6.93;;
29200;SDS011;16244;51.956;12.980;2022-09-30T08:38:30;13.27;;;7.23;;
29200;SDS011;16244;51.956;12.980;2022-09-30T08:41:00;15.40;;;7.83;;
29200;SDS011;16244;51.956;12.980;2022-09-30T08:43:37;16.27;;;7.37;;
29200;SDS011;16244;51.956;12.980;2022-09-30T08:46:09;14.80;;;7.00;;
29200;SDS011;16244;51.956;12.980;2022-09-30T08:48:44;15.57;;;6.53;;
29200;SDS011;16244;51.956;12.980;2022-09-30T08:51:22;16.00;;;6.80;;
29200;SDS011;16244;51.956;12.980;2022-09-30T08:53:57;18.30;;;7.73;;
29200;SDS011;16244;51.956;12.980;2022-09-30T08:56:27;18.23;;;8.00;;
29200;SDS011;16244;51.956;12.980;2022-09-30T08:58:59;15.60;;;7.10;;
29200;SDS011;16244;51.956;12.980;2022-09-30T09:01:31;15.43;;;6.57;;
29200;SDS011;16244;51.956;12.980;2022-09-30T09:04:00;16.63;;;5.83;;
29200;SDS011;16244;51.956;12.980;2022-09-30T09:06:30;17.70;;;6.00;;
29200;SDS011;16244;51.956;12.980;2022-09-30T09:12:11;21.53;;;6.57;;
29200;SDS011;16244;51.956;12.980;2022-09-30T09:14:54;19.60;;;5.33;;
29200;SDS011;16244;51.956;12.980;2022-09-30T09:17:37;19.23;;;6.70;;
29200;SDS011;16244;51.956;12.980;2022-09-30T09:20:14;18.30;;;4.97;;
29200;SDS011;16244;51.956;12.980;2022-09-30T09:22:43;22.27;;;4.50;;
29200;SDS011;16244;51.956;12.980;2022-09-30T09:25:14;17.37;;;4.37;;
29200;SDS011;16244;51.956;12.980;2022-09-30T09:27:44;15.83;;;4.23;;
29200;SDS011;16244;51.956;12.980;2022-09-30T09:30:19;17.60;;;4.50;;
29200;SDS011;16244;51.956;12.980;2022-09-30T09:32:48;16.97;;;4.83;;
29200;SDS011;16244;51.956;12.980;2022-09-30T09:35:24;17.47;;;5.50;;
29200;SDS011;16244;51.956;12.980;2022-09-30T09:38:03;17.47;;;3.37;;
29200;SDS011;16244;51.956;12.980;2022-09-30T09:40:55;11.35;;;3.10;;
29200;SDS011;16244;51.956;12.980;2022-09-30T09:43:39;9.53;;;3.20;;
29200;SDS011;16244;51.956;12.980;2022-09-30T09:46:19;17.55;;;5.00;;
29200;SDS011;16244;51.956;12.980;2022-09-30T09:48:55;12.60;;;3.30;;
29200;SDS011;16244;51.956;12.980;2022-09-30T09:51:58;13.32;;;3.35;;
29200;SDS011;16244;51.956;12.980;2022-09-30T09:54:43;14.43;;;2.63;;
29200;SDS011;16244;51.956;12.980;2022-09-30T09:57:11;18.13;;;3.03;;
29200;SDS011;16244;51.956;12.980;2022-09-30T09:59:52;17.38;;;2.88;;
29200;SDS011;16244;51.956;12.980;2022-09-30T10:02:23;20.40;;;3.33;;
29200;SDS011;16244;51.956;12.980;2022-09-30T10:04:52;18.65;;;2.70;;
29200;SDS011;16244;51.956;12.980;2022-09-30T10:07:26;15.75;;;2.88;;
29200;SDS011;16244;51.956;12.980;2022-09-30T10:10:08;15.95;;;2.58;;
29200;SDS011;16244;51.956;12.980;2022-09-30T10:12:43;15.80;;;2.92;;
29200;SDS011;16244;51.956;12.980;2022-09-30T10:15:19;14.90;;;2.10;;
29200;SDS011;16244;51.956;12.980;2022-09-30T10:17:53;11.20;;;1.95;;
29200;SDS011;16244;51.956;12.980;2022-09-30T10:20:23;9.48;;;2.13;;
29200;SDS011;16244;51.956;12.980;2022-09-30T10:23:00;9.48;;;2.50;;
29200;SDS011;16244;51.956;12.980;2022-09-30T10:25:34;8.40;;;2.03;;
29200;SDS011;16244;51.956;12.980;2022-09-30T10:28:03;9.23;;;1.75;;
29200;SDS011;16244;51.956;12.980;2022-09-30T10:30:47;8.35;;;1.67;;
29200;SDS011;16244;51.956;12.980;2022-09-30T10:33:21;10.77;;;1.85;;
29200;SDS011;16244;51.956;12.980;2022-09-30T10:35:55;10.35;;;1.75;;
29200;SDS011;16244;51.956;12.980;2022-09-30T10:38:33;8.63;;;1.30;;
29200;SDS011;16244;51.956;12.980;2022-09-30T10:41:03;8.20;;;1.20;;
29200;SDS011;16244;51.956;12.980;2022-09-30T10:43:33;8.10;;;1.35;;
29200;SDS011;16244;51.956;12.980;2022-09-30T10:46:05;9.65;;;1.52;;
29200;SDS011;16244;51.956;12.980;2022-09-30T10:48:36;9.77;;;2.10;;
29200;SDS011;16244;51.956;12.980;2022-09-30T10:51:04;11.40;;;2.10;;
29200;SDS011;16244;51.956;12.980;2022-09-30T10:53:48;10.33;;;1.70;;
29200;SDS011;16244;51.956;12.980;2022-09-30T10:56:30;9.40;;;1.80;;
29200;SDS011;16244;51.956;12.980;2022-09-30T10:59:06;13.00;;;1.47;;
29200;SDS011;16244;51.956;12.980;2022-09-30T11:01:47;12.53;;;1.77;;
29200;SDS011;16244;51.956;12.980;2022-09-30T11:04:22;9.73;;;1.43;;
29200;SDS011;16244;51.956;12.980;2022-09-30T11:06:56;8.77;;;1.00;;
29200;SDS011;16244;51.956;12.980;2022-09-30T11:09:32;9.53;;;1.00;;
29200;SDS011;16244;51.956;12.980;2022-09-30T11:12:03;8.80;;;1.00;;
29200;SDS011;16244;51.956;12.980;2022-09-30T11:14:38;10.70;;;1.47;;
29200;SDS011;16244;51.956;12.980;2022-09-30T11:17:15;18.80;;;1.80;;
29200;SDS011;16244;51.956;12.980;2022-09-30T11:19:54;10.93;;;2.30;;
29200;SDS011;16244;51.956;12.980;2022-09-30T11:22:38;10.93;;;1.60;;
29200;SDS011;16244;51.956;12.980;2022-09-30T11:25:13;10.93;;;1.20;;
29200;SDS011;16244;51.956;12.980;2022-09-30T11:27:43;16.63;;;1.30;;
29200;SDS011;16244;51.956;12.980;2022-09-30T11:30:19;20.00;;;1.33;;
29200;SDS011;16244;51.956;12.980;2022-09-30T11:32:53;15.10;;;2.30;;
29200;SDS011;16244;51.956;12.980;2022-09-30T11:35:38;16.03;;;4.77;;
29200;SDS011;16244;51.956;12.980;2022-09-30T11:38:19;12.20;;;2.00;;
29200;SDS011;16244;51.956;12.980;2022-09-30T11:41:08;13.90;;;2.93;;
29200;SDS011;16244;51.956;12.980;2022-09-30T11:43:42;13.60;;;2.43;;
29200;SDS011;16244;51.956;12.980;2022-09-30T11:46:20;17.80;;;4.47;;
29200;SDS011;16244;51.956;12.980;2022-09-30T11:52:07;10.70;;;1.80;;
29200;SDS011;16244;51.956;12.980;2022-09-30T11:54:47;10.50;;;2.07;;
29200;SDS011;16244;51.956;12.980;2022-09-30T11:57:31;12.83;;;2.20;;
29200;SDS011;16244;51.956;12.980;2022-09-30T12:00:04;9.57;;;2.20;;
29200;SDS011;16244;51.956;12.980;2022-09-30T12:02:38;10.33;;;1.87;;
29200;SDS011;16244;51.956;12.980;2022-09-30T12:05:09;12.00;;;1.63;;
29200;SDS011;16244;51.956;12.980;2022-09-30T12:07:42;10.47;;;2.10;;
29200;SDS011;16244;51.956;12.980;2022-09-30T12:10:14;10.20;;;2.17;;
29200;SDS011;16244;51.956;12.980;2022-09-30T12:12:47;9.40;;;1.80;;
29200;SDS011;16244;51.956;12.980;2022-09-30T12:15:17;11.70;;;1.70;;
29200;SDS011;16244;51.956;12.980;2022-09-30T12:17:48;11.30;;;2.13;;
29200;SDS011;16244;51.956;12.980;2022-09-30T12:20:21;10.20;;;2.30;;
29200;SDS011;16244;51.956;12.980;2022-09-30T12:22:54;10.17;;;2.00;;
29200;SDS011;16244;51.956;12.980;2022-09-30T12:25:27;9.53;;;1.70;;
29200;SDS011;16244;51.956;12.980;2022-09-30T12:27:59;10.50;;;1.73;;
29200;SDS011;16244;51.956;12.980;2022-09-30T12:30:53;9.20;;;1.67;;
29200;SDS011;16244;51.956;12.980;2022-09-30T12:33:31;11.10;;;1.60;;
29200;SDS011;16244;51.956;12.980;2022-09-30T12:36:25;10.33;;;1.80;;
29200;SDS011;16244;51.956;12.980;2022-09-30T12:39:32;11.77;;;2.23;;
29200;SDS011;16244;51.956;12.980;2022-09-30T12:42:38;12.47;;;2.10;;
29200;SDS011;16244;51.956;12.980;2022-09-30T12:45:24;8.83;;;1.27;;
29200;SDS011;16244;51.956;12.980;2022-09-30T12:48:01;12.00;;;2.80;;
29200;SDS011;16244;51.956;12.980;2022-09-30T12:50:33;14.53;;;2.80;;
29200;SDS011;16244;51.956;12.980;2022-09-30T12:53:09;14.60;;;3.60;;
29200;SDS011;16244;51.956;12.980;2022-09-30T12:55:42;17.90;;;4.10;;
29200;SDS011;16244;51.956;12.980;2022-09-30T12:58:15;14.50;;;4.80;;
29200;SDS011;16244;51.956;12.980;2022-09-30T13:00:57;15.93;;;4.37;;
29200;SDS011;16244;51.956;12.980;2022-09-30T13:03:26;13.17;;;3.10;;
29200;SDS011;16244;51.956;12.980;2022-09-30T13:05:54;13.20;;;2.20;;
29200;SDS011;16244;51.956;12.980;2022-09-30T13:11:39;10.00;;;1.60;;
29200;SDS011;16244;51.956;12.980;2022-09-30T13:14:23;22.47;;;3.10;;
29200;SDS011;16244;51.956;12.980;2022-09-30T13:19:49;16.03;;;2.53;;
29200;SDS011;16244;51.956;12.980;2022-09-30T13:25:24;7.80;;;1.30;;
29200;SDS011;16244;51.956;12.980;2022-09-30T13:27:53;12.10;;;1.67;;
29200;SDS011;16244;51.956;12.980;2022-09-30T13:30:49;10.40;;;1.97;;
29200;SDS011;16244;51.956;12.980;2022-09-30T13:33:41;12.17;;;1.97;;
29200;SDS011;16244;51.956;12.980;2022-09-30T13:36:17;12.50;;;1.40;;
29200;SDS011;16244;51.956;12.980;2022-09-30T13:39:05;9.00;;;1.37;;
29200;SDS011;16244;51.956;12.980;2022-09-30T13:41:42;11.70;;;1.37;;
29200;SDS011;16244;51.956;12.980;2022-09-30T13:44:12;9.50;;;1.33;;
29200;SDS011;16244;51.956;12.980;2022-09-30T13:46:45;9.27;;;1.53;;
29200;SDS011;16244;51.956;12.980;2022-09-30T13:49:17;13.33;;;1.57;;
29200;SDS011;16244;51.956;12.980;2022-09-30T13:51:48;10.90;;;1.30;;
29200;SDS011;16244;51.956;12.980;2022-09-30T13:54:17;9.17;;;1.50;;
29200;SDS011;16244;51.956;12.980;2022-09-30T13:56:50;16.40;;;1.30;;
29200;SDS011;16244;51.956;12.980;2022-09-30T13:59:28;12.97;;;1.93;;
29200;SDS011;16244;51.956;12.980;2022-09-30T14:02:22;11.20;;;1.27;;
29200;SDS011;16244;51.956;12.980;2022-09-30T14:05:21;14.47;;;1.23;;
29200;SDS011;16244;51.956;12.980;2022-09-30T14:08:18;14.13;;;2.17;;
29200;SDS011;16244;51.956;12.980;2022-09-30T14:11:10;9.30;;;1.10;;
29200;SDS011;16244;51.956;12.980;2022-09-30T14:13:54;9.07;;;1.17;;
29200;SDS011;16244;51.956;12.980;2022-09-30T14:16:45;11.73;;;1.77;;
29200;SDS011;16244;51.956;12.980;2022-09-30T14:19:29;10.73;;;1.37;;
29200;SDS011;16244;51.956;12.980;2022-09-30T14:22:09;16.53;;;1.30;;
29200;SDS011;16244;51.956;12.980;2022-09-30T14:24:38;9.90;;;1.40;;
29200;SDS011;16244;51.956;12.980;2022-09-30T14:27:12;13.10;;;1.43;;
29200;SDS011;16244;51.956;12.980;2022-09-30T14:29:52;12.80;;;1.30;;
29200;SDS011;16244;51.956;12.980;2022-09-30T14:32:29;10.50;;;1.20;;
29200;SDS011;16244;51.956;12.980;2022-09-30T14:35:03;10.00;;;2.10;;
29200;SDS011;16244;51.956;12.980;2022-09-30T14:37:34;13.27;;;2.63;;
29200;SDS011;16244;51.956;12.980;2022-09-30T14:40:07;10.83;;;2.23;;
29200;SDS011;16244;51.956;12.980;2022-09-30T14:42:36;10.27;;;2.10;;
29200;SDS011;16244;51.956;12.980;2022-09-30T14:45:07;11.40;;;2.30;;
29200;SDS011;16244;51.956;12.980;2022-09-30T14:47:35;11.07;;;1.90;;
29200;SDS011;16244;51.956;12.980;2022-09-30T14:50:09;10.67;;;2.10;;
29200;SDS011;16244;51.956;12.980;2022-09-30T14:52:41;12.23;;;2.60;;
29200;SDS011;16244;51.956;12.980;2022-09-30T14:55:19;13.83;;;2.87;;
29200;SDS011;16244;51.956;12.980;2022-09-30T14:57:49;9.90;;;2.23;;
29200;SDS011;16244;51.956;12.980;2022-09-30T15:00:18;9.90;;;2.00;;
29200;SDS011;16244;51.956;12.980;2022-09-30T15:02:46;9.67;;;1.67;;
29200;SDS011;16244;51.956;12.980;2022-09-30T15:05:15;9.40;;;2.00;;
29200;SDS011;16244;51.956;12.980;2022-09-30T15:07:43;10.93;;;1.83;;
29200;SDS011;16244;51.956;12.980;2022-09-30T15:10:15;17.80;;;2.10;;
29200;SDS011;16244;51.956;12.980;2022-09-30T15:12:46;11.30;;;2.20;;
29200;SDS011;16244;51.956;12.980;2022-09-30T15:15:21;10.50;;;2.20;;
29200;SDS011;16244;51.956;12.980;2022-09-30T15:17:50;11.13;;;2.07;;
29200;SDS011;16244;51.956;12.980;2022-09-30T15:20:25;11.10;;;2.23;;
29200;SDS011;16244;51.956;12.980;2022-09-30T15:22:55;19.37;;;4.07;;
29200;SDS011;16244;51.956;12.980;2022-09-30T15:25:25;13.73;;;3.30;;
29200;SDS011;16244;51.956;12.980;2022-09-30T15:27:53;14.73;;;4.37;;
29200;SDS011;16244;51.956;12.980;2022-09-30T15:30:22;14.90;;;3.77;;
29200;SDS011;16244;51.956;12.980;2022-09-30T15:32:55;11.60;;;3.30;;
29200;SDS011;16244;51.956;12.980;2022-09-30T15:35:25;10.10;;;3.33;;
29200;SDS011;16244;51.956;12.980;2022-09-30T15:37:53;10.30;;;2.43;;
29200;SDS011;16244;51.956;12.980;2022-09-30T15:40:32;11.00;;;3.97;;
29200;SDS011;16244;51.956;12.980;2022-09-30T15:43:14;18.63;;;7.27;;
29200;SDS011;16244;51.956;12.980;2022-09-30T15:45:51;19.40;;;6.13;;
29200;SDS011;16244;51.956;12.980;2022-09-30T15:48:31;19.43;;;3.70;;
29200;SDS011;16244;51.956;12.980;2022-09-30T15:51:21;9.20;;;2.03;;
29200;SDS011;16244;51.956;12.980;2022-09-30T15:53:49;12.63;;;2.80;;
29200;SDS011;16244;51.956;12.980;2022-09-30T15:56:21;12.27;;;2.63;;
29200;SDS011;16244;51.956;12.980;2022-09-30T15:58:54;12.80;;;3.77;;
29200;SDS011;16244;51.956;12.980;2022-09-30T16:01:22;19.03;;;6.40;;
29200;SDS011;16244;51.956;12.980;2022-09-30T16:03:52;19.83;;;7.40;;
29200;SDS011;16244;51.956;12.980;2022-09-30T16:06:55;17.87;;;7.30;;
29200;SDS011;16244;51.956;12.980;2022-09-30T16:09:52;21.60;;;7.73;;
29200;SDS011;16244;51.956;12.980;2022-09-30T16:12:44;34.73;;;14.43;;
29200;SDS011;16244;51.956;12.980;2022-09-30T16:15:45;31.73;;;13.10;;
29200;SDS011;16244;51.956;12.980;2022-09-30T16:18:29;27.50;;;10.80;;
29200;SDS011;16244;51.956;12.980;2022-09-30T16:20:58;15.50;;;5.50;;
29200;SDS011;16244;51.956;12.980;2022-09-30T16:26:42;12.47;;;3.57;;
29200;SDS011;16244;51.956;12.980;2022-09-30T16:29:27;14.30;;;3.77;;
29200;SDS011;16244;51.956;12.980;2022-09-30T16:32:17;12.37;;;4.40;;
29200;SDS011;16244;51.956;12.980;2022-09-30T16:34:59;9.27;;;2.77;;
29200;SDS011;16244;51.956;12.980;2022-09-30T16:37:41;8.20;;;2.60;;
29200;SDS011;16244;51.956;12.980;2022-09-30T16:40:34;7.37;;;2.23;;
29200;SDS011;16244;51.956;12.980;2022-09-30T16:43:33;13.23;;;2.43;;
29200;SDS011;16244;51.956;12.980;2022-09-30T16:46:26;6.70;;;2.47;;
29200;SDS011;16244;51.956;12.980;2022-09-30T16:48:54;7.73;;;2.37;;
29200;SDS011;16244;51.956;12.980;2022-09-30T16:51:21;7.93;;;2.73;;
29200;SDS011;16244;51.956;12.980;2022-09-30T16:53:48;6.60;;;2.50;;
29200;SDS011;16244;51.956;12.980;2022-09-30T16:56:16;7.30;;;2.67;;